This is the latest recevied weather packets stored in our database for station/object KO4DYK. If no packets are shown the sender has not sent any weather packets the latest 10 day(s).
| Time | Temp. | Humidity | Pressure | Rain* | Wind** | Luminosity | Snow |
|---|---|---|---|---|---|---|---|
| 1787853068 | 32.78° C | 62% | 1016.7 hPa | 0 mm | - | 626 W/m² | - |
| 1787852762 | 36.11° C | 58% | 1016.8 hPa | 0 mm | - | 199 W/m² | - |
| 1787852461 | 34.44° C | 61% | 1016.9 hPa | 0 mm | - | 717 W/m² | - |
| 1787852161 | 32.22° C | 66% | 1017 hPa | 0 mm | - | 700 W/m² | - |
| 1787851856 | 32.78° C | 66% | 1017 hPa | 0 mm | - | 642 W/m² | - |
| 1787851555 | 33.89° C | 63% | 1017.1 hPa | 0 mm | - | 314 W/m² | - |
| 1787851250 | 34.44° C | 61% | 1017.2 hPa | 0 mm | - | 602 W/m² | - |
| 1787850946 | 32.78° C | 65% | 1017.2 hPa | 0 mm | - | 629 W/m² | - |
| 1787850642 | 33.33° C | 64% | 1017.4 hPa | 0 mm | - | 686 W/m² | - |
| 1787850337 | 32.22° C | 67% | 1017.4 hPa | 0 mm | - | 682 W/m² | - |
| 1787850033 | 32.78° C | 65% | 1017.2 hPa | 0 mm | - | 638 W/m² | - |
| 1787849732 | 32.78° C | 67% | 1017.4 hPa | 0 mm | - | 616 W/m² | - |
| 1787849427 | 32.78° C | 66% | 1017.6 hPa | 0 mm | - | 655 W/m² | - |
| 1787849125 | 33.33° C | 65% | 1017.4 hPa | 0 mm | - | 673 W/m² | - |
| 1787848820 | 32.22° C | 68% | 1017.7 hPa | 0 mm | - | 655 W/m² | - |
| 1787848520 | 30.56° C | 71% | 1017.6 hPa | 0 mm | - | 646 W/m² | - |
| 1787848215 | 30.56° C | 71% | 1017.7 hPa | 0 mm | - | 635 W/m² | - |
| 1787847915 | 30° C | 71% | 1017.7 hPa | 0 mm | - | 596 W/m² | - |
| 1787847615 | 30° C | 75% | 1017.9 hPa | 0 mm | - | 661 W/m² | - |
| 1787847310 | 30° C | 75% | 1017.7 hPa | 0 mm | - | 672 W/m² | - |
| 1787847007 | 29.44° C | 78% | 1017.9 hPa | 0 mm | - | 643 W/m² | - |
| 1787846706 | 30° C | 76% | 1018.2 hPa | 0 mm | - | 630 W/m² | - |
| 1787846401 | 30.56° C | 76% | 1017.9 hPa | 0 mm | - | 568 W/m² | - |
| 1787846097 | 30.56° C | 75% | 1017.9 hPa | 0 mm | - | 650 W/m² | - |
| 1787845793 | 30.56° C | 76% | 1017.7 hPa | 0 mm | - | 690 W/m² | - |
* Rain latest hour (hover to see other rain measurements)
** Current wind speed in m/s (hover to see current wind gust speed)